KINTKMYR

Guest
Details From KINT - Smith Reynolds
To KMYR - Myrtle Beach Intl
Flight Number -
Tags generated
Created
Modified
Stats Distance 161 nm / 298 km
Max Altitude 11,400 ft / 3,475 m
Waypoints 3
Social Downloads 0
Likes 0
Share VATSIM

Download

Looking for another format? Having issues loading an existing format? Contact us
Advertisement - Login to hide

Notes

Basic altitude profile: - Ascent Rate: 1000ft/min - Ascent Speed: 100kts - Cruise Altitude: 25ft - Cruise Speed: 112kts - Descent Rate: 1000ft/min - Descent Speed: 110kts Options: - Use NATs: no - Use PACOTS: no - Use low airways: yes - Use high airways: no

Route

KINT TROCK KMYR

ID Type Via Altitude Latitude Longitude Leg Dist Tot Dist Heading (true) Name
O KINT APT - 0 ft / 0 m 36.13453˚ -80.22275˚ - 0 nm - Smith Reynolds
TROCK FIX - 11,400 ft / 3,475 m 34.48046˚ -79.40210˚ 107 nm 107 nm 158° / 158° -
O KMYR APT - 0 ft / 0 m 33.67974˚ -78.92832˚ 53 nm 160 nm 154° / 154° Myrtle Beach Intl

Altitude Profile

Advertisement - Login to hide

KINT

Details ICAO KINT (INT)
Name Smith Reynolds
Region United States
Timezone America/New_York (UTC-5.0)
Stats Elevation 969 ft / 295 m (AMSL)
Location 36.134529° -80.222753°
Runways 2
Magnetic Variation 8.318° W

METAR

KINT 102354Z 22004KT 10SM CLR 02/M06 A3012 RMK AO2 SLP205 T00221056 10039 20022 55001

Decode

TAF

TAF KINT 102320Z 1100/1124 22003KT P6SM FEW120

Decode

Departure Runways

ID Width Length Bearing (true) Bearing (mag) Surface Threshold Offset Overrun Length
04 151 ft / 46 m 3,943 ft / 1,202 m 30.62° 38.94° Asphalt 0 ft / 0 m 0 ft / 0 m
15 151 ft / 46 m 6,661 ft / 2,030 m 144.75° 153.07° Asphalt 587 ft / 179 m 0 ft / 0 m
22 151 ft / 46 m 3,943 ft / 1,202 m 210.62° 218.94° Asphalt 0 ft / 0 m 0 ft / 0 m
33 151 ft / 46 m 6,661 ft / 2,030 m 324.76° 333.08° Asphalt 0 ft / 0 m 0 ft / 0 m

KMYR

Details ICAO KMYR (MYR)
Name Myrtle Beach Intl
Region United States
Timezone America/New_York (UTC-5.0)
Stats Elevation 24 ft / 7 m (AMSL)
Location 33.679740° -78.928321°
Runways 1
Magnetic Variation 8.713° W

METAR

KMYR 102356Z 24005KT 10SM CLR 05/M02 A3023 RMK AO2 SLP238 T00501017 10094 20028 53010

Decode

TAF

TAF KMYR 102320Z 1100/1124 26005KT P6SM SKC

Decode

Destination Runways

ID Width Length Bearing (true) Bearing (mag) Surface Threshold Offset Overrun Length
18 150 ft / 46 m 9,528 ft / 2,904 m 168.26° 176.97° Asphalt 0 ft / 0 m 1,001 ft / 305 m
36 150 ft / 46 m 9,528 ft / 2,904 m 348.26° 356.97° Asphalt 0 ft / 0 m 1,001 ft / 305 m

Approach Navaids

Runway Type Ident Frequency Range Bearing (true) Bearing (mag) Slope Elevation
18 Localiser IMYR 109.50 MHz 18 nm / 33 km 168.26° 176.98° - 14 ft / 4 m (AMSL)
18 Glidescope IMYR 109.50 MHz 10 nm / 19 km 168.26° 176.97° 3.00° 22 ft / 7 m (AMSL)
36 Localiser IBSQ 111.90 MHz 18 nm / 33 km 348.26° 356.97° - 24 ft / 7 m (AMSL)
36 Glidescope IBSQ 111.90 MHz 10 nm / 19 km 348.26° 356.97° 3.00° 24 ft / 7 m (AMSL)

Popular Alternatives